sensor_id;sensor_type;location;lat;lon;timestamp;pressure;altitude;pressure_sealevel;temperature;humidity
56270;BME280;42176;43.240;27.880;2024-02-14T00:01:42;99693.75;;;6.61;100.00
56270;BME280;42176;43.240;27.880;2024-02-14T00:03:43;99698.53;;;6.24;100.00
56270;BME280;42176;43.240;27.880;2024-02-14T00:05:44;99700.00;;;6.52;100.00
56270;BME280;42176;43.240;27.880;2024-02-14T00:07:45;99699.88;;;6.63;100.00
56270;BME280;42176;43.240;27.880;2024-02-14T00:09:46;99694.91;;;7.02;100.00
56270;BME280;42176;43.240;27.880;2024-02-14T00:11:47;99699.63;;;6.81;100.00
56270;BME280;42176;43.240;27.880;2024-02-14T00:13:47;99703.72;;;6.34;100.00
56270;BME280;42176;43.240;27.880;2024-02-14T00:15:50;99695.63;;;6.48;100.00
56270;BME280;42176;43.240;27.880;2024-02-14T00:17:51;99707.72;;;6.66;100.00
56270;BME280;42176;43.240;27.880;2024-02-14T00:19:52;99703.00;;;6.90;100.00
56270;BME280;42176;43.240;27.880;2024-02-14T00:21:53;99708.06;;;7.05;100.00
56270;BME280;42176;43.240;27.880;2024-02-14T00:23:54;99713.91;;;7.26;100.00
56270;BME280;42176;43.240;27.880;2024-02-14T00:25:54;99709.31;;;7.40;100.00
56270;BME280;42176;43.240;27.880;2024-02-14T00:27:55;99710.88;;;7.51;100.00
56270;BME280;42176;43.240;27.880;2024-02-14T00:29:56;99709.00;;;7.59;100.00
56270;BME280;42176;43.240;27.880;2024-02-14T00:31:56;99706.16;;;7.71;100.00
56270;BME280;42176;43.240;27.880;2024-02-14T00:33:57;99696.47;;;7.72;100.00
56270;BME280;42176;43.240;27.880;2024-02-14T00:35:57;99702.91;;;6.99;100.00
56270;BME280;42176;43.240;27.880;2024-02-14T00:37:58;99698.31;;;6.46;100.00
56270;BME280;42176;43.240;27.880;2024-02-14T00:39:58;99706.53;;;6.18;100.00
56270;BME280;42176;43.240;27.880;2024-02-14T00:41:59;99712.53;;;6.30;100.00
56270;BME280;42176;43.240;27.880;2024-02-14T00:43:59;99714.88;;;6.54;100.00
56270;BME280;42176;43.240;27.880;2024-02-14T00:46:00;99720.59;;;6.88;100.00
56270;BME280;42176;43.240;27.880;2024-02-14T00:48:01;99712.34;;;6.48;100.00
56270;BME280;42176;43.240;27.880;2024-02-14T00:50:04;99706.47;;;6.23;100.00
56270;BME280;42176;43.240;27.880;2024-02-14T00:52:05;99707.97;;;6.44;100.00
56270;BME280;42176;43.240;27.880;2024-02-14T00:54:07;99706.88;;;6.64;100.00
56270;BME280;42176;43.240;27.880;2024-02-14T00:56:08;99708.47;;;6.74;100.00
56270;BME280;42176;43.240;27.880;2024-02-14T00:58:09;99715.13;;;6.33;100.00
56270;BME280;42176;43.240;27.880;2024-02-14T01:00:09;99711.94;;;6.06;100.00
56270;BME280;42176;43.240;27.880;2024-02-14T01:02:10;99723.13;;;6.23;100.00
56270;BME280;42176;43.240;27.880;2024-02-14T01:04:11;99715.91;;;6.41;100.00
56270;BME280;42176;43.240;27.880;2024-02-14T01:06:11;99709.50;;;6.64;100.00
56270;BME280;42176;43.240;27.880;2024-02-14T01:08:14;99709.19;;;6.85;100.00
56270;BME280;42176;43.240;27.880;2024-02-14T01:10:15;99701.78;;;7.14;100.00
56270;BME280;42176;43.240;27.880;2024-02-14T01:12:15;99702.56;;;6.58;100.00
56270;BME280;42176;43.240;27.880;2024-02-14T01:14:17;99699.53;;;6.16;100.00
56270;BME280;42176;43.240;27.880;2024-02-14T01:16:17;99707.38;;;6.20;100.00
56270;BME280;42176;43.240;27.880;2024-02-14T01:18:18;99703.59;;;6.43;100.00
56270;BME280;42176;43.240;27.880;2024-02-14T01:20:18;99717.31;;;6.70;100.00
56270;BME280;42176;43.240;27.880;2024-02-14T01:22:19;99706.72;;;6.76;100.00
56270;BME280;42176;43.240;27.880;2024-02-14T01:24:19;99716.16;;;6.19;100.00
56270;BME280;42176;43.240;27.880;2024-02-14T01:26:20;99705.06;;;5.86;100.00
56270;BME280;42176;43.240;27.880;2024-02-14T01:28:21;99714.25;;;6.32;100.00
56270;BME280;42176;43.240;27.880;2024-02-14T01:30:22;99724.56;;;6.51;100.00
56270;BME280;42176;43.240;27.880;2024-02-14T01:32:24;99727.75;;;6.79;100.00
56270;BME280;42176;43.240;27.880;2024-02-14T01:34:25;99717.47;;;6.58;100.00
56270;BME280;42176;43.240;27.880;2024-02-14T01:36:25;99726.00;;;5.97;100.00
56270;BME280;42176;43.240;27.880;2024-02-14T01:38:26;99729.50;;;6.04;100.00
56270;BME280;42176;43.240;27.880;2024-02-14T01:40:26;99723.03;;;6.33;100.00
56270;BME280;42176;43.240;27.880;2024-02-14T01:42:27;99722.84;;;6.51;100.00
56270;BME280;42176;43.240;27.880;2024-02-14T01:44:27;99717.41;;;6.64;100.00
56270;BME280;42176;43.240;27.880;2024-02-14T01:46:28;99717.03;;;6.92;100.00
56270;BME280;42176;43.240;27.880;2024-02-14T01:48:29;99713.34;;;6.38;100.00
56270;BME280;42176;43.240;27.880;2024-02-14T01:50:29;99720.75;;;5.97;100.00
56270;BME280;42176;43.240;27.880;2024-02-14T01:52:32;99727.03;;;5.82;100.00
56270;BME280;42176;43.240;27.880;2024-02-14T01:54:33;99742.47;;;6.22;100.00
56270;BME280;42176;43.240;27.880;2024-02-14T01:56:34;99729.94;;;6.43;100.00
56270;BME280;42176;43.240;27.880;2024-02-14T01:58:36;99717.41;;;6.64;100.00
56270;BME280;42176;43.240;27.880;2024-02-14T02:00:38;99725.19;;;6.75;100.00
56270;BME280;42176;43.240;27.880;2024-02-14T02:02:39;99724.97;;;6.89;100.00
56270;BME280;42176;43.240;27.880;2024-02-14T02:04:40;99714.38;;;6.93;100.00
56270;BME280;42176;43.240;27.880;2024-02-14T02:06:40;99701.19;;;6.95;100.00
56270;BME280;42176;43.240;27.880;2024-02-14T02:08:45;99727.44;;;7.01;100.00
56270;BME280;42176;43.240;27.880;2024-02-14T02:10:46;99723.88;;;7.05;100.00
56270;BME280;42176;43.240;27.880;2024-02-14T02:12:46;99721.91;;;7.20;100.00
56270;BME280;42176;43.240;27.880;2024-02-14T02:14:47;99725.59;;;7.09;100.00
56270;BME280;42176;43.240;27.880;2024-02-14T02:16:48;99715.97;;;7.07;100.00
56270;BME280;42176;43.240;27.880;2024-02-14T02:18:49;99712.38;;;7.11;100.00
56270;BME280;42176;43.240;27.880;2024-02-14T02:20:50;99722.94;;;6.39;100.00
56270;BME280;42176;43.240;27.880;2024-02-14T02:22:50;99722.75;;;5.72;100.00
56270;BME280;42176;43.240;27.880;2024-02-14T02:24:51;99736.94;;;5.51;100.00
56270;BME280;42176;43.240;27.880;2024-02-14T02:26:51;99747.41;;;5.55;100.00
56270;BME280;42176;43.240;27.880;2024-02-14T02:28:52;99752.53;;;5.72;100.00
56270;BME280;42176;43.240;27.880;2024-02-14T02:30:52;99753.16;;;6.07;100.00
56270;BME280;42176;43.240;27.880;2024-02-14T02:32:55;99748.47;;;6.34;100.00
56270;BME280;42176;43.240;27.880;2024-02-14T02:34:56;99759.41;;;5.86;100.00
56270;BME280;42176;43.240;27.880;2024-02-14T02:36:58;99736.13;;;5.44;100.00
56270;BME280;42176;43.240;27.880;2024-02-14T02:38:58;99728.06;;;5.64;100.00
56270;BME280;42176;43.240;27.880;2024-02-14T02:41:00;99741.00;;;5.90;100.00
56270;BME280;42176;43.240;27.880;2024-02-14T02:43:01;99732.78;;;6.23;100.00
56270;BME280;42176;43.240;27.880;2024-02-14T02:45:02;99738.47;;;5.76;100.00
56270;BME280;42176;43.240;27.880;2024-02-14T02:47:06;99733.56;;;5.33;100.00
56270;BME280;42176;43.240;27.880;2024-02-14T02:49:07;99736.81;;;5.66;100.00
56270;BME280;42176;43.240;27.880;2024-02-14T02:51:07;99746.25;;;5.90;100.00
56270;BME280;42176;43.240;27.880;2024-02-14T02:53:08;99735.41;;;6.24;100.00
56270;BME280;42176;43.240;27.880;2024-02-14T02:55:09;99734.03;;;5.80;100.00
56270;BME280;42176;43.240;27.880;2024-02-14T02:57:10;99725.66;;;5.34;100.00
56270;BME280;42176;43.240;27.880;2024-02-14T02:59:11;99756.38;;;5.22;100.00
56270;BME280;42176;43.240;27.880;2024-02-14T03:01:13;99757.00;;;5.61;100.00
56270;BME280;42176;43.240;27.880;2024-02-14T03:03:14;99750.66;;;5.85;100.00
56270;BME280;42176;43.240;27.880;2024-02-14T03:05:16;99764.47;;;6.12;100.00
56270;BME280;42176;43.240;27.880;2024-02-14T03:07:20;99760.50;;;5.61;100.00
56270;BME280;42176;43.240;27.880;2024-02-14T03:09:21;99761.66;;;5.23;100.00
56270;BME280;42176;43.240;27.880;2024-02-14T03:11:22;99756.47;;;5.11;100.00
56270;BME280;42176;43.240;27.880;2024-02-14T03:13:23;99753.75;;;5.23;100.00
56270;BME280;42176;43.240;27.880;2024-02-14T03:15:24;99764.94;;;5.56;100.00
56270;BME280;42176;43.240;27.880;2024-02-14T03:17:27;99757.66;;;5.89;100.00
56270;BME280;42176;43.240;27.880;2024-02-14T03:19:30;99760.66;;;5.43;100.00
56270;BME280;42176;43.240;27.880;2024-02-14T03:21:33;99752.13;;;5.00;100.00
56270;BME280;42176;43.240;27.880;2024-02-14T03:23:35;99757.25;;;5.27;100.00
56270;BME280;42176;43.240;27.880;2024-02-14T03:25:36;99761.47;;;5.51;100.00
56270;BME280;42176;43.240;27.880;2024-02-14T03:27:37;99761.06;;;6.02;100.00
56270;BME280;42176;43.240;27.880;2024-02-14T03:29:37;99761.44;;;5.54;100.00
56270;BME280;42176;43.240;27.880;2024-02-14T03:31:39;99768.72;;;5.10;100.00
56270;BME280;42176;43.240;27.880;2024-02-14T03:33:39;99780.03;;;5.26;100.00
56270;BME280;42176;43.240;27.880;2024-02-14T03:35:40;99778.13;;;5.50;100.00
56270;BME280;42176;43.240;27.880;2024-02-14T03:37:42;99784.06;;;5.75;100.00
56270;BME280;42176;43.240;27.880;2024-02-14T03:39:44;99776.00;;;6.02;100.00
56270;BME280;42176;43.240;27.880;2024-02-14T03:41:45;99778.19;;;5.44;100.00
56270;BME280;42176;43.240;27.880;2024-02-14T03:43:46;99780.13;;;5.05;100.00
56270;BME280;42176;43.240;27.880;2024-02-14T03:45:46;99785.31;;;5.17;100.00
56270;BME280;42176;43.240;27.880;2024-02-14T03:47:47;99796.56;;;5.44;100.00
56270;BME280;42176;43.240;27.880;2024-02-14T03:49:48;99791.16;;;5.67;100.00
56270;BME280;42176;43.240;27.880;2024-02-14T03:51:48;99792.78;;;5.84;100.00
56270;BME280;42176;43.240;27.880;2024-02-14T03:53:53;99782.22;;;5.87;100.00
56270;BME280;42176;43.240;27.880;2024-02-14T03:55:53;99794.34;;;6.08;100.00
56270;BME280;42176;43.240;27.880;2024-02-14T03:57:54;99801.31;;;6.12;100.00
56270;BME280;42176;43.240;27.880;2024-02-14T03:59:55;99810.91;;;6.19;100.00
56270;BME280;42176;43.240;27.880;2024-02-14T04:01:56;99785.41;;;6.24;100.00
56270;BME280;42176;43.240;27.880;2024-02-14T04:03:58;99806.50;;;6.23;100.00
56270;BME280;42176;43.240;27.880;2024-02-14T04:05:59;99809.16;;;6.21;100.00
56270;BME280;42176;43.240;27.880;2024-02-14T04:08:01;99802.06;;;6.27;100.00
56270;BME280;42176;43.240;27.880;2024-02-14T04:10:01;99801.22;;;6.26;100.00
56270;BME280;42176;43.240;27.880;2024-02-14T04:12:02;99812.47;;;6.39;100.00
56270;BME280;42176;43.240;27.880;2024-02-14T04:14:02;99816.06;;;6.32;100.00
56270;BME280;42176;43.240;27.880;2024-02-14T04:16:03;99814.19;;;6.43;100.00
56270;BME280;42176;43.240;27.880;2024-02-14T04:18:04;99815.31;;;6.16;100.00
56270;BME280;42176;43.240;27.880;2024-02-14T04:20:06;99816.75;;;5.39;100.00
56270;BME280;42176;43.240;27.880;2024-02-14T04:22:07;99827.44;;;5.05;100.00
56270;BME280;42176;43.240;27.880;2024-02-14T04:24:08;99818.72;;;4.96;100.00
56270;BME280;42176;43.240;27.880;2024-02-14T04:26:09;99824.84;;;4.91;100.00
56270;BME280;42176;43.240;27.880;2024-02-14T04:28:09;99841.53;;;4.79;100.00
56270;BME280;42176;43.240;27.880;2024-02-14T04:30:12;99829.16;;;5.12;100.00
56270;BME280;42176;43.240;27.880;2024-02-14T04:32:14;99829.88;;;5.45;100.00
56270;BME280;42176;43.240;27.880;2024-02-14T04:34:14;99823.38;;;5.92;100.00
56270;BME280;42176;43.240;27.880;2024-02-14T04:36:15;99833.38;;;5.44;100.00
56270;BME280;42176;43.240;27.880;2024-02-14T04:38:16;99836.16;;;5.13;100.00
56270;BME280;42176;43.240;27.880;2024-02-14T04:40:18;99855.50;;;4.87;100.00
56270;BME280;42176;43.240;27.880;2024-02-14T04:42:19;99844.84;;;5.27;100.00
56270;BME280;42176;43.240;27.880;2024-02-14T04:44:19;99853.47;;;5.51;100.00
56270;BME280;42176;43.240;27.880;2024-02-14T04:46:20;99845.28;;;5.98;100.00
56270;BME280;42176;43.240;27.880;2024-02-14T04:48:23;99839.44;;;5.58;100.00
56270;BME280;42176;43.240;27.880;2024-02-14T04:50:26;99837.16;;;4.85;100.00
56270;BME280;42176;43.240;27.880;2024-02-14T04:52:26;99834.50;;;4.93;100.00
56270;BME280;42176;43.240;27.880;2024-02-14T04:54:27;99848.28;;;5.42;100.00
56270;BME280;42176;43.240;27.880;2024-02-14T04:56:28;99846.38;;;5.66;100.00
56270;BME280;42176;43.240;27.880;2024-02-14T04:58:29;99847.91;;;5.94;100.00
56270;BME280;42176;43.240;27.880;2024-02-14T05:00:29;99839.44;;;5.52;100.00
56270;BME280;42176;43.240;27.880;2024-02-14T05:02:30;99845.78;;;5.15;100.00
56270;BME280;42176;43.240;27.880;2024-02-14T05:04:31;99854.56;;;5.08;100.00
56270;BME280;42176;43.240;27.880;2024-02-14T05:06:32;99851.81;;;5.38;100.00
56270;BME280;42176;43.240;27.880;2024-02-14T05:08:32;99870.06;;;5.64;100.00
56270;BME280;42176;43.240;27.880;2024-02-14T05:10:33;99865.53;;;5.89;100.00
56270;BME280;42176;43.240;27.880;2024-02-14T05:12:33;99885.09;;;5.39;100.00
56270;BME280;42176;43.240;27.880;2024-02-14T05:14:37;99866.00;;;4.87;100.00
56270;BME280;42176;43.240;27.880;2024-02-14T05:16:38;99894.03;;;4.97;100.00
56270;BME280;42176;43.240;27.880;2024-02-14T05:18:38;99897.44;;;5.18;100.00
56270;BME280;42176;43.240;27.880;2024-02-14T05:20:39;99899.09;;;5.44;100.00
56270;BME280;42176;43.240;27.880;2024-02-14T05:22:40;99904.22;;;5.69;100.00
56270;BME280;42176;43.240;27.880;2024-02-14T05:24:40;99900.47;;;6.10;100.00
56270;BME280;42176;43.240;27.880;2024-02-14T05:26:41;99894.63;;;5.63;100.00
56270;BME280;42176;43.240;27.880;2024-02-14T05:28:41;99919.38;;;5.08;100.00
56270;BME280;42176;43.240;27.880;2024-02-14T05:30:42;99914.13;;;4.98;100.00
56270;BME280;42176;43.240;27.880;2024-02-14T05:32:43;99928.91;;;5.30;100.00
56270;BME280;42176;43.240;27.880;2024-02-14T05:34:43;99937.44;;;5.85;100.00
56270;BME280;42176;43.240;27.880;2024-02-14T05:36:44;99939.38;;;5.46;100.00
56270;BME280;42176;43.240;27.880;2024-02-14T05:38:46;99948.25;;;5.17;100.00
56270;BME280;42176;43.240;27.880;2024-02-14T05:40:47;99943.03;;;5.05;100.00
56270;BME280;42176;43.240;27.880;2024-02-14T05:42:48;99950.94;;;4.97;100.00
56270;BME280;42176;43.240;27.880;2024-02-14T05:44:48;99953.56;;;4.83;100.00
56270;BME280;42176;43.240;27.880;2024-02-14T05:46:49;99961.41;;;5.05;100.00
56270;BME280;42176;43.240;27.880;2024-02-14T05:48:50;99946.44;;;5.44;100.00
56270;BME280;42176;43.240;27.880;2024-02-14T05:50:52;99950.66;;;5.73;100.00
56270;BME280;42176;43.240;27.880;2024-02-14T05:52:53;99953.94;;;6.15;100.00
56270;BME280;42176;43.240;27.880;2024-02-14T05:54:54;99951.22;;;7.23;100.00
56270;BME280;42176;43.240;27.880;2024-02-14T05:56:54;99936.91;;;6.63;100.00
56270;BME280;42176;43.240;27.880;2024-02-14T05:58:55;99949.88;;;5.58;100.00
56270;BME280;42176;43.240;27.880;2024-02-14T06:00:55;99942.31;;;6.44;100.00
56270;BME280;42176;43.240;27.880;2024-02-14T06:02:56;99958.59;;;7.69;100.00
56270;BME280;42176;43.240;27.880;2024-02-14T06:04:57;99955.28;;;8.74;100.00
56270;BME280;42176;43.240;27.880;2024-02-14T06:06:57;99938.75;;;8.04;100.00
56270;BME280;42176;43.240;27.880;2024-02-14T06:08:58;99951.66;;;7.62;100.00
56270;BME280;42176;43.240;27.880;2024-02-14T06:10:58;99951.66;;;8.81;100.00
56270;BME280;42176;43.240;27.880;2024-02-14T06:12:59;99940.94;;;9.78;100.00
56270;BME280;42176;43.240;27.880;2024-02-14T06:15:01;99940.09;;;10.15;100.00
56270;BME280;42176;43.240;27.880;2024-02-14T06:17:02;99955.84;;;10.94;100.00
56270;BME280;42176;43.240;27.880;2024-02-14T06:19:03;99950.13;;;11.72;100.00
56270;BME280;42176;43.240;27.880;2024-02-14T06:21:05;99951.31;;;11.32;100.00
56270;BME280;42176;43.240;27.880;2024-02-14T06:23:05;99952.94;;;10.70;100.00
56270;BME280;42176;43.240;27.880;2024-02-14T06:25:07;99985.16;;;8.79;100.00
56270;BME280;42176;43.240;27.880;2024-02-14T06:27:08;99968.84;;;7.19;100.00
56270;BME280;42176;43.240;27.880;2024-02-14T06:29:09;99974.03;;;7.27;100.00
56270;BME280;42176;43.240;27.880;2024-02-14T06:31:09;99973.78;;;7.49;100.00
56270;BME280;42176;43.240;27.880;2024-02-14T06:33:10;99976.34;;;7.55;100.00
56270;BME280;42176;43.240;27.880;2024-02-14T06:35:11;99979.91;;;6.63;100.00
56270;BME280;42176;43.240;27.880;2024-02-14T06:37:11;99984.44;;;6.47;100.00
56270;BME280;42176;43.240;27.880;2024-02-14T06:39:12;99989.84;;;7.30;100.00
56270;BME280;42176;43.240;27.880;2024-02-14T06:41:13;99986.97;;;7.49;100.00
56270;BME280;42176;43.240;27.880;2024-02-14T06:43:13;99993.88;;;7.62;100.00
56270;BME280;42176;43.240;27.880;2024-02-14T06:45:14;99991.13;;;7.68;100.00
56270;BME280;42176;43.240;27.880;2024-02-14T06:47:14;100000.00;;;6.78;100.00
56270;BME280;42176;43.240;27.880;2024-02-14T06:49:18;99999.41;;;6.39;100.00
56270;BME280;42176;43.240;27.880;2024-02-14T06:51:18;100006.16;;;6.74;100.00
56270;BME280;42176;43.240;27.880;2024-02-14T06:53:20;100012.06;;;7.01;100.00
56270;BME280;42176;43.240;27.880;2024-02-14T06:55:21;100002.13;;;7.31;100.00
56270;BME280;42176;43.240;27.880;2024-02-14T06:57:21;100013.66;;;7.21;100.00
56270;BME280;42176;43.240;27.880;2024-02-14T06:59:22;100024.81;;;6.46;100.00
56270;BME280;42176;43.240;27.880;2024-02-14T07:01:22;100028.44;;;6.33;100.00
56270;BME280;42176;43.240;27.880;2024-02-14T07:03:23;99996.47;;;6.79;100.00
56270;BME280;42176;43.240;27.880;2024-02-14T07:05:24;100001.44;;;7.12;100.00
56270;BME280;42176;43.240;27.880;2024-02-14T07:07:26;100024.84;;;7.43;100.00
56270;BME280;42176;43.240;27.880;2024-02-14T07:09:27;100030.81;;;7.62;100.00
56270;BME280;42176;43.240;27.880;2024-02-14T07:11:29;100026.84;;;7.97;100.00
56270;BME280;42176;43.240;27.880;2024-02-14T07:13:29;100010.28;;;7.06;100.00
56270;BME280;42176;43.240;27.880;2024-02-14T07:15:30;100014.19;;;6.59;100.00
56270;BME280;42176;43.240;27.880;2024-02-14T07:17:31;100007.66;;;7.05;100.00
56270;BME280;42176;43.240;27.880;2024-02-14T07:19:31;100037.88;;;7.60;100.00
56270;BME280;42176;43.240;27.880;2024-02-14T07:21:32;100037.50;;;7.91;100.00
56270;BME280;42176;43.240;27.880;2024-02-14T07:23:33;100040.84;;;8.02;100.00
56270;BME280;42176;43.240;27.880;2024-02-14T07:25:34;100061.06;;;8.06;100.00
56270;BME280;42176;43.240;27.880;2024-02-14T07:27:34;100058.56;;;7.94;100.00
56270;BME280;42176;43.240;27.880;2024-02-14T07:29:35;100040.31;;;6.86;100.00
56270;BME280;42176;43.240;27.880;2024-02-14T07:31:36;100059.19;;;6.23;100.00
56270;BME280;42176;43.240;27.880;2024-02-14T07:33:37;100047.81;;;6.22;100.00
56270;BME280;42176;43.240;27.880;2024-02-14T07:35:37;100046.69;;;6.54;100.00
56270;BME280;42176;43.240;27.880;2024-02-14T07:37:38;100040.28;;;6.90;100.00
56270;BME280;42176;43.240;27.880;2024-02-14T07:39:38;100037.53;;;7.05;100.00
56270;BME280;42176;43.240;27.880;2024-02-14T07:41:39;100054.09;;;7.20;100.00
56270;BME280;42176;43.240;27.880;2024-02-14T07:43:40;100032.84;;;7.35;100.00
56270;BME280;42176;43.240;27.880;2024-02-14T07:45:40;100025.69;;;7.45;100.00
56270;BME280;42176;43.240;27.880;2024-02-14T07:47:41;100081.94;;;7.49;100.00
56270;BME280;42176;43.240;27.880;2024-02-14T07:49:42;100059.16;;;7.40;100.00
56270;BME280;42176;43.240;27.880;2024-02-14T07:51:42;100048.59;;;7.44;100.00
56270;BME280;42176;43.240;27.880;2024-02-14T07:53:43;100039.69;;;7.52;100.00
56270;BME280;42176;43.240;27.880;2024-02-14T07:55:43;100038.81;;;7.54;100.00
56270;BME280;42176;43.240;27.880;2024-02-14T07:57:44;100033.38;;;7.67;100.00
56270;BME280;42176;43.240;27.880;2024-02-14T07:59:44;100036.13;;;7.59;100.00
56270;BME280;42176;43.240;27.880;2024-02-14T08:01:45;100058.09;;;7.58;100.00
56270;BME280;42176;43.240;27.880;2024-02-14T08:03:46;100071.19;;;7.67;100.00
56270;BME280;42176;43.240;27.880;2024-02-14T08:05:46;100065.81;;;7.76;100.00
56270;BME280;42176;43.240;27.880;2024-02-14T08:07:47;100074.56;;;7.78;100.00
56270;BME280;42176;43.240;27.880;2024-02-14T08:09:48;100076.94;;;8.03;100.00
56270;BME280;42176;43.240;27.880;2024-02-14T08:11:48;100068.97;;;8.06;100.00
56270;BME280;42176;43.240;27.880;2024-02-14T08:13:50;100053.22;;;7.97;100.00
56270;BME280;42176;43.240;27.880;2024-02-14T08:15:51;100066.44;;;7.97;100.00
56270;BME280;42176;43.240;27.880;2024-02-14T08:17:53;100048.81;;;8.01;100.00
56270;BME280;42176;43.240;27.880;2024-02-14T08:19:56;100074.31;;;8.00;100.00
56270;BME280;42176;43.240;27.880;2024-02-14T08:21:57;100059.09;;;8.21;100.00
56270;BME280;42176;43.240;27.880;2024-02-14T08:23:59;100041.72;;;8.04;100.00
56270;BME280;42176;43.240;27.880;2024-02-14T08:26:00;100045.44;;;7.86;100.00
56270;BME280;42176;43.240;27.880;2024-02-14T08:28:01;100043.69;;;7.04;100.00
56270;BME280;42176;43.240;27.880;2024-02-14T08:30:01;100075.75;;;6.45;100.00
56270;BME280;42176;43.240;27.880;2024-02-14T08:32:02;100078.47;;;6.23;100.00
56270;BME280;42176;43.240;27.880;2024-02-14T08:34:03;100083.56;;;6.56;100.00
56270;BME280;42176;43.240;27.880;2024-02-14T08:36:07;100111.25;;;7.16;100.00
56270;BME280;42176;43.240;27.880;2024-02-14T08:38:08;100062.38;;;7.68;100.00
56270;BME280;42176;43.240;27.880;2024-02-14T08:40:08;100056.88;;;7.87;100.00
56270;BME280;42176;43.240;27.880;2024-02-14T08:42:10;100072.50;;;8.05;100.00
56270;BME280;42176;43.240;27.880;2024-02-14T08:44:10;100075.81;;;8.23;100.00
56270;BME280;42176;43.240;27.880;2024-02-14T08:46:11;100077.41;;;8.33;100.00
56270;BME280;42176;43.240;27.880;2024-02-14T08:48:11;100071.38;;;7.49;100.00
56270;BME280;42176;43.240;27.880;2024-02-14T08:50:12;100076.31;;;6.88;100.00
56270;BME280;42176;43.240;27.880;2024-02-14T08:52:14;100073.91;;;6.57;100.00
56270;BME280;42176;43.240;27.880;2024-02-14T08:54:14;100071.78;;;7.05;100.00
56270;BME280;42176;43.240;27.880;2024-02-14T08:56:16;100069.56;;;7.54;100.00
56270;BME280;42176;43.240;27.880;2024-02-14T08:58:17;100065.69;;;7.86;100.00
56270;BME280;42176;43.240;27.880;2024-02-14T09:00:17;100087.81;;;7.75;100.00
56270;BME280;42176;43.240;27.880;2024-02-14T09:02:22;100064.66;;;7.16;100.00
56270;BME280;42176;43.240;27.880;2024-02-14T09:04:23;100074.50;;;6.97;100.00
56270;BME280;42176;43.240;27.880;2024-02-14T09:06:23;100092.59;;;7.38;100.00
56270;BME280;42176;43.240;27.880;2024-02-14T09:08:24;100064.75;;;7.93;100.00
56270;BME280;42176;43.240;27.880;2024-02-14T09:10:24;100079.31;;;8.25;100.00
56270;BME280;42176;43.240;27.880;2024-02-14T09:12:25;100078.16;;;8.42;100.00
56270;BME280;42176;43.240;27.880;2024-02-14T09:14:26;100054.56;;;8.29;100.00
56270;BME280;42176;43.240;27.880;2024-02-14T09:16:27;100078.66;;;8.07;100.00
56270;BME280;42176;43.240;27.880;2024-02-14T09:18:27;100070.72;;;8.07;100.00
56270;BME280;42176;43.240;27.880;2024-02-14T09:20:28;100070.84;;;7.14;100.00
56270;BME280;42176;43.240;27.880;2024-02-14T09:22:29;100054.50;;;6.72;100.00
56270;BME280;42176;43.240;27.880;2024-02-14T09:24:29;100098.91;;;7.16;100.00
56270;BME280;42176;43.240;27.880;2024-02-14T09:26:30;100060.75;;;7.58;100.00
56270;BME280;42176;43.240;27.880;2024-02-14T09:28:31;100074.34;;;7.97;100.00
56270;BME280;42176;43.240;27.880;2024-02-14T09:30:33;100055.84;;;7.18;100.00
56270;BME280;42176;43.240;27.880;2024-02-14T09:32:34;100058.06;;;6.66;100.00
56270;BME280;42176;43.240;27.880;2024-02-14T09:34:34;100082.94;;;7.37;100.00
56270;BME280;42176;43.240;27.880;2024-02-14T09:36:35;100065.81;;;7.76;100.00
56270;BME280;42176;43.240;27.880;2024-02-14T09:38:35;100065.38;;;8.11;100.00
56270;BME280;42176;43.240;27.880;2024-02-14T09:40:36;100039.69;;;8.23;100.00
56270;BME280;42176;43.240;27.880;2024-02-14T09:42:53;100037.75;;;8.35;100.00
56270;BME280;42176;43.240;27.880;2024-02-14T09:45:04;100043.56;;;8.63;100.00
56270;BME280;42176;43.240;27.880;2024-02-14T09:47:06;100059.22;;;8.76;100.00
56270;BME280;42176;43.240;27.880;2024-02-14T09:49:08;100055.63;;;8.80;100.00
56270;BME280;42176;43.240;27.880;2024-02-14T09:51:09;100067.78;;;8.90;100.00
56270;BME280;42176;43.240;27.880;2024-02-14T09:53:12;100060.91;;;8.80;100.00
56270;BME280;42176;43.240;27.880;2024-02-14T09:55:14;100049.41;;;8.82;100.00
56270;BME280;42176;43.240;27.880;2024-02-14T09:57:16;100047.22;;;9.08;100.00
56270;BME280;42176;43.240;27.880;2024-02-14T09:59:17;100045.47;;;9.07;100.00
56270;BME280;42176;43.240;27.880;2024-02-14T10:01:18;100057.09;;;8.99;100.00
56270;BME280;42176;43.240;27.880;2024-02-14T10:03:21;100065.91;;;8.98;100.00
56270;BME280;42176;43.240;27.880;2024-02-14T10:05:21;100070.47;;;8.89;100.00
56270;BME280;42176;43.240;27.880;2024-02-14T10:07:22;100054.16;;;8.60;100.00
56270;BME280;42176;43.240;27.880;2024-02-14T10:09:23;100065.66;;;8.58;100.00
56270;BME280;42176;43.240;27.880;2024-02-14T10:11:25;100069.97;;;8.63;100.00
56270;BME280;42176;43.240;27.880;2024-02-14T10:13:27;100071.94;;;8.49;100.00
56270;BME280;42176;43.240;27.880;2024-02-14T10:15:29;100084.28;;;8.47;100.00
56270;BME280;42176;43.240;27.880;2024-02-14T10:17:33;100089.50;;;8.53;100.00
56270;BME280;42176;43.240;27.880;2024-02-14T10:19:34;100089.56;;;8.47;100.00
56270;BME280;42176;43.240;27.880;2024-02-14T10:21:34;100069.97;;;8.63;100.00
56270;BME280;42176;43.240;27.880;2024-02-14T10:23:35;100070.19;;;8.45;100.00
56270;BME280;42176;43.240;27.880;2024-02-14T10:25:35;100084.47;;;8.31;100.00
56270;BME280;42176;43.240;27.880;2024-02-14T10:27:37;100085.19;;;8.43;100.00
56270;BME280;42176;43.240;27.880;2024-02-14T10:29:38;100078.00;;;8.56;100.00